Girls Moderate 3 Course Challenge S




9/23/2017
3.1 Miles

Click for Age Graded Results   


PlaceLast NameAgeGenderCityStateTimePaceCATAge PlaceGender PlaceClubCR
1 Abi Swain 0FNorth Salem 00:22:500:07:22F111 
2 Heather Hanson 0FAnacortes 00:22:590:07:25F122 
3 Allyson Peterson 0FHockinson 00:23:200:07:32F133 
4 Isabella Ayala 0FLebanon 00:23:220:07:32F144 
5 Livia Glascock 0FShorecrest 00:24:030:07:45F155 
6 Sophia Gamble 0FShorecrest 00:24:070:07:47F166 
7 Cadence Gunther 0FWest Point Grey 00:24:320:07:55F177 
8 Sanjana Borle 0FMonta Vista 00:24:350:07:56F188 
9 Roselynn Martin 0FLa Center 00:24:460:07:59F1109 
10 Lillian Nelson 0FColumbia (white Salmon) 00:24:460:07:59F1910 
11 Michaela Lorenz 0FBend 00:24:490:08:00F11111 
12 Lauren Ling 0FMonta Vista 00:24:500:08:01F11212 
13 Kierrla Yates 0FR A Long 00:24:590:08:03F11313 
14 Dina Altuhov 0FLebanon 00:25:050:08:06F11414 
15 Marika Jamtaas 0FMountlake Terrace 00:25:120:08:08F11515 
16 Leah Kerbs 0FAuburn Riverside 00:25:130:08:08F11616 
17 Emma Haburn 0FNorth Salem 00:25:160:08:09F11717 
18 Anna Bursch 0FEnumclaw 00:25:180:08:10F11818 
19 Kendra Matson 0FBattle Ground 00:25:200:08:10F11919 
20 Annabelle Ust 0FKentridge 00:25:220:08:11F12020 
21 Adyson Dyer 0FHockinson 00:25:300:08:13F12121 
22 Anne Mariecovlin 0FBend 00:25:330:08:15F12222 
23 Kennedy Randall 0FWest Point Grey 00:25:370:08:16F12323 
24 Abby Orman 0FHockinson 00:25:420:08:18F12424 
25 Cassie Macnab 0FStevenson 00:25:450:08:18F12525 
26 Sandra Hart 0FMountlake Terrace 00:25:500:08:20F12626 
27 Fiona Henry 0FMountain View (or) 00:25:530:08:21F12727 
28 Faith Cardenas 0FAberdeen 00:25:560:08:22F12828 
29 Elida Ramsey 0FMountain View (or) 00:25:570:08:22F12929 
30 Emily Moore 0FMountain View (or) 00:26:000:08:23F13030 
31 Amy Hills 0FSisters 00:26:060:08:25F13131 
32 Jessica Kieffer 0FWest Point Grey 00:26:080:08:26F13332 
33 Ronna Iverson 0FShorecrest 00:26:080:08:26F13233 
34 Skyla Anderson 0FStayton 00:26:100:08:26F13534 
35 Azaris Velazquez 0FKennedy 00:26:100:08:26F13435 
36 Olivia Rothenstein 0FEastlake 00:26:190:08:29F13636 
37 Wesley Brewer 0FYamhill-carlton 00:26:260:08:32F13737 
38 Azita Balsara 0FEastlake 00:26:290:08:33F13838 
39 Shannon Rhodes 0FShorecrest 00:26:300:08:33F13939 
40 Taylor Kopp 0FHockinson 00:26:350:08:35F14040 
41 Olivia Dever 0FCorvallis 00:26:370:08:35F14141 
42 Jasmine Wong 0FKentridge 00:26:450:08:38F14242 
43 Catherine Huynh 0FDecatur 00:26:460:08:38F14343 
44 Seley Nemish 0FEnumclaw 00:26:470:08:39F14444 
45 Alexandra Traffalis 0FSeton Catholic 00:26:490:08:39F14545 
46 Mia Gradecak 0FWest Point Grey 00:26:500:08:39F14646 
47 Libbie Nash 0FAstoria 00:26:510:08:40F14747 
48 Sienna Smith 0FWest Point Grey 00:26:510:08:40F14848 
49 Sophie Cameron 0FWest Point Grey 00:26:520:08:40F14949 
50 Jessica Cuevas 0FTodd Beamer 00:26:590:08:42F15050 
51 Giovanna Rhoads 0FColumbia River 00:27:060:08:44F15151 
52 Brynna Rooklidge 0FCentralia 00:27:090:08:46F15252 
53 Kathy Perez 0FAstoria 00:27:100:08:46F15353 
54 Sierra Harris 0FLa Center 00:27:120:08:46F15454 
55 Gwen Curin 0FWest Point Grey 00:27:120:08:47F15555 
56 Elizabeth Lewis 0FBarlow 00:27:170:08:48F15656 
57 Alex Carper 0FIlwaco 00:27:220:08:50F15757 
58 Lindee Cutler 0FMountlake Terrace 00:27:230:08:50F15858 
59 Jenny Hanson 0FAnacortes 00:27:240:08:50F15959 
60 Scout Gesuale 0FBend 00:27:250:08:51F16060 
61 Carli Kemmer 0FIlwaco 00:27:260:08:51F16161 
62 Stella Sobotkova 0FCottage Grove 00:27:270:08:51F16262 
63 Alicia Cruz 0FCerritos 00:27:290:08:52F16363 
64 Taylor Ramirez 0FBarlow 00:27:320:08:53F16464 
65 Jasmin Velasco 0FOcosta 00:27:350:08:54F16565 
66 Natalie Pihulak 0FClackamas 00:27:450:08:57F16666 
67 Olivia Iparraguirre 0FClackamas 00:27:460:08:57F16867 
68 Audrey Kanooth 0FBattle Ground 00:27:460:08:57F16768 
69 Danielle Holland 0FKentwood 00:27:480:08:58F16969 
70 Malina Marleau 0FClackamas 00:27:490:08:58F17070 
71 Michelle Hart 0FBarlow 00:27:500:08:59F17171 
72 Daniella Cuevas 0FKentwood 00:27:510:08:59F17272 
73 Isha Pema 0FCerritos 00:27:520:08:59F17373 
74 Sarah Buckingham 0FWalnut Grove 00:27:540:08:59F17474 
75 Estella Sheldon 0FIlwaco 00:27:560:09:01F17575 
76 Sofia Iparraguirre 0FClackamas 00:27:590:09:02F17676 
77 Jayden Davis 0FMadras 00:27:590:09:02F17777 
78 Bethany Cox 0FBarlow 00:28:010:09:02F17878 
79 Macy Mckenny 0FBarlow 00:28:020:09:02F17979 
80 Jordan Pallai 0FWest Point Grey 00:28:030:09:03F18080 
81 Piper Laymen 0FEnumclaw 00:28:040:09:03F18181 
82 Kira Kopcho 0FAuburn Riverside 00:28:080:09:04F18282 
83 Clarissa Traeger 0FKennedy 00:28:170:09:07F18383 
84 Hannah Roddan 0FWest Point Grey 00:28:190:09:08F18484 
85 Ariana Chevalier 0FTodd Beamer 00:28:200:09:08F18685 
86 Rosemaline Watley 0FNorth Salem 00:28:200:09:08F18586 
87 Darcy Pound 0FBarlow 00:28:240:09:10F18787 
88 Lindy Moxham 0FWest Point Grey 00:28:260:09:10F18888 
89 Anushka Tandon 0FMonta Vista 00:28:270:09:11F18989 
90 Megan Black 0FHorizon Christian 00:28:280:09:11F19090 
91 Kaitlyn Waters 0FBaker 00:28:290:09:11F19191 
92 Valeri Hutchins 0FRainier (or) 00:28:340:09:13F19292 
93 Mikayla Thiel 0FDallas 00:28:350:09:13F19393 
94 Mia Flores 0FRiver Ridge 00:28:350:09:13F19494 
95 Lindsey Bell 0FColumbia River 00:28:410:09:15F19595 
96 Samantha Taylor 0FBend 00:28:440:09:16F19696 
97 Laura Geringer 0FCentralia 00:28:450:09:16F19797 
98 Emma Brooks 0FWest Point Grey 00:28:450:09:16F19898 
99 Mckinzee Mode 0FCrook County 00:28:460:09:17F19999 
100 Grace Bengtson 0FBend 00:28:470:09:17F1100100 
101 Hannah Trotman 0FWest Point Grey 00:28:470:09:17F1101101 
102 Melody Hight 0FDallas 00:28:510:09:18F1102102 
103 Katherine Merrick 0FBend 00:28:530:09:19F1103103 
104 Janiece Moore 0FMolalla 00:28:550:09:20F1104104 
105 Allison Ruth 0FClackamas 00:28:570:09:20F1105105 
106 Iris Diez 0FSisters 00:28:590:09:21F1106106 
107 Samantha Mendoza 0FDecatur 00:29:010:09:22F1107107 
108 Emily Spain 0FCentennial 00:29:020:09:22F1108108 
109 Casey Spencer 0FCentennial 00:29:070:09:23F1109109 
110 Sierra Smith 0FBattle Ground 00:29:090:09:24F1111110 
111 Jayden Rice 0FBaker 00:29:090:09:24F1110111 
112 Ella Doane 0FRiver Ridge 00:29:170:09:27F1112112 
113 Neve Ostry-young 0FWest Point Grey 00:29:180:09:27F1113113 
114 Molly Jaeger 0FKennedy 00:29:240:09:29F1114114 
115 Tashana Williams 0FAuburn Riverside 00:29:260:09:30F1115115 
116 Madeleine Seifert 0FBend 00:29:260:09:30F1116116 
117 Gigi Paduano 0FEastlake 00:29:290:09:31F1117117 
118 Lillian Mcnabb 0FBend 00:29:310:09:31F1118118 
119 Allyson Pritchard 0FAstoria 00:29:330:09:32F1119119 
120 Clara Schmidt 0FMeadowdale 00:29:350:09:33F1120120 
121 Abby Dalton 0FCrook County 00:29:360:09:33F1121121 
122 Skylar Wilkins 0FSisters 00:29:370:09:33F1122122 
123 Esmeralda Martinez 0FLebanon 00:29:410:09:34F1124123 
124 Elsa Wong 0FKentridge 00:29:410:09:35F1123124 
125 Alejandra Gonzales 0FNorth Salem 00:29:420:09:35F1125125 
126 Tawnee Craig 0FCentralia 00:29:490:09:37F1126126 
127 Ana Rojas 0FSeaside 00:29:500:09:37F1127127 
128 Sydney Clark 0FSeton Catholic 00:29:560:09:39F1128128 
129 Ariel Griffith 0FRidgefield 00:30:000:09:41F1129129 
130 Jianna Norris 0FBend 00:30:050:09:42F1131130 
131 Hannah Kienle 0FBarlow 00:30:050:09:42F1130131 
132 Kellie Nguyen 0FRidgefield 00:30:070:09:43F1132132 
133 Lauren Kersavage 0FColumbia River 00:30:080:09:43F1133133 
134 Jocelyn Benitez 0FTodd Beamer 00:30:090:09:43F1134134 
135 Tia Mack 0FRiver Ridge 00:30:100:09:44F1135135 
136 Bethany Bibler 0FSalem Academy 00:30:120:09:45F1136136 
137 Maya Foster-wexler 0FBend 00:30:200:09:47F1137137 
138 Phoenix Spengler 0FKentridge 00:30:300:09:50F1138138 
139 Fortune Aknin 0FWest Point Grey 00:30:320:09:51F1139139 
140 Erin Brooks 0FWest Point Grey 00:30:360:09:52F1140140 
141 Raina Manzano 0FKentridge 00:30:370:09:52F1141141 
142 Aria Mays 0FLebanon 00:30:430:09:54F1142142 
143 Jessica German 0FSequim 00:30:430:09:55F1143143 
144 Sierra Stillwell 0FTodd Beamer 00:30:440:09:55F1144144 
145 Annie Greene 0FAmity 00:30:450:09:55F1145145 
146 Hannah Dozhier 0FCrook County 00:30:460:09:55F1146146 
147 Sara Packard 0FOcosta 00:30:500:09:57F1147147 
148 Alex Sauceda 0FKentlake 00:30:510:09:57F1149148 
149 Nicole Cuevasandrade 0FBend 00:30:510:09:57F1148149 
150 Madison Marko 0FKentlake 00:30:520:09:57F1150150 
151 Emma Frazeur 0FStayton 00:30:520:09:57F1151151 
152 Alyssa Cudd 0FStayton 00:30:530:09:58F1152152 
153 Hillary Barley 0FSt Helens 00:30:590:09:59F1153153 
154 Jenavieve Cabasan 0FAuburn Riverside 00:31:010:10:00F1154154 
155 Quetzalli Rodriguez 0FKentridge 00:31:010:10:00F1155155 
156 Cienna Ciampi-hicks 0FCascade 00:31:030:10:01F1156156 
157 Maricella King 0FTodd Beamer 00:31:060:10:02F1158157 
158 Katherine (jia)kim 0FCerritos 00:31:060:10:02F1157158 
159 Leeza Brown 0FElma 00:31:290:10:09F1159159 
160 Hannah Porter 0FCentralia 00:31:320:10:10F1160160 
161 Josslyn Fraser 0FColumbia River 00:31:340:10:11F1161161 
162 Sofia Boone 0FBend 00:31:360:10:12F1162162 
163 Olivia Watkins 0FWest Point Grey 00:31:380:10:12F1163163 
164 Rachel Luther 0FColumbia (white Salmon) 00:31:430:10:14F1164164 
165 Shae Johnson 0FSalem Academy 00:31:500:10:16F1165165 
166 Kari Lewis 0FColumbia (white Salmon) 00:31:550:10:18F1166166 
167 Luciana Paventy 0FCorvallis 00:31:550:10:18F1167167 
168 Annika Mccarty 0FWoodland 00:32:010:10:20F1168168 
169 Cameron Elliott 0FMountain View (or) 00:32:040:10:21F1169169 
170 Josephine Adams 0FWest Point Grey 00:32:060:10:21F1170170 
171 Alexandria Charlier 0FRainier (or) 00:32:080:10:22F1172171 
172 Savannah Davis 0FCottage Grove 00:32:080:10:22F1171172 
173 Rhea Florez 0FCottage Grove 00:32:090:10:22F1173173 
174 Jessica Mitchell 0FKentlake 00:32:090:10:22F1174174 
175 Jennifer Cole 0FHoquiam 00:32:110:10:23F1175175 
176 Allie Gifford 0FCottage Grove 00:32:120:10:23F1176176 
177 Daniela Reyes 0FBattle Ground 00:32:220:10:26F1177177 
178 Emily Chang 0FClackamas 00:32:260:10:28F1178178 
179 Emily Silva 0FSequim 00:32:280:10:28F1179179 
180 Mya Sheakley 0FClackamas 00:32:320:10:30F1180180 
181 Bergen Bueker 0FBend 00:32:350:10:31F1181181 
182 Nevada Paris 0FDecatur 00:32:360:10:31F1182182 
183 Theresa Mai 0FAuburn 00:32:370:10:31F1183183 
184 Alyssa Orr 0FBend 00:32:380:10:32F1184184 
185 Grace Halferty 0FBend 00:32:390:10:32F1185185 
186 Bella Shaffer 0FEastlake 00:32:400:10:32F1186186 
187 Morgan Collings 0FAuburn 00:32:440:10:34F1187187 
188 Manmeet Kaur 0FAuburn 00:32:450:10:34F1188188 
189 Hannah Oliver 0FBend 00:32:470:10:35F1189189 
190 Bella Haupt 0FShorecrest 00:32:520:10:36F1190190 
191 Emma Lewis 0FRidgefield 00:32:540:10:37F1191191 
192 Monique Williams 0FBattle Ground 00:32:570:10:38F1192192 
193 Lea Jackson 0FSeattle Christian 00:33:000:10:39F1193193 
194 Katie Laface 0FWalnut Grove 00:33:120:10:42F1194194 
195 Mollie Mcdonald 0FWest Point Grey 00:33:140:10:43F1195195 
196 Clarissa Haselwood 0FDecatur 00:33:160:10:44F1196196 
197 Natalie Scott 0FTimberline 00:33:260:10:47F1197197 
198 Savannah Lee 0FColumbia River 00:33:320:10:49F1198198 
199 Johanna Zilla 0FRiver Ridge 00:33:370:10:51F1199199 
200 Emma Squires 0FLebanon 00:33:400:10:52F1200200 
1 2

Race List    Reports    Home



Click Here for a complete race list

If you have any suggestion, comments, corrections or if you want your name removed from the database, Please Email Russ at RaceResults@comcast.net
Be Patient. Corrections can take up to 2 week to process. Most mistakes are caused by sloppy handwriting. Be considerate by always writing neatly on you registration form. It helps you by having correct database results and it helps me by not having to make the corrections.